sensor_id;sensor_type;location;lat;lon;timestamp;P1;durP1;ratioP1;P2;durP2;ratioP2
15677;SDS011;7939;50.814;6.368;2023-02-12T00:01:01;62.50;;;28.67;;
15677;SDS011;7939;50.814;6.368;2023-02-12T00:03:28;56.08;;;26.50;;
15677;SDS011;7939;50.814;6.368;2023-02-12T00:05:59;62.22;;;27.40;;
15677;SDS011;7939;50.814;6.368;2023-02-12T00:08:26;63.67;;;27.63;;
15677;SDS011;7939;50.814;6.368;2023-02-12T00:10:53;62.92;;;29.02;;
15677;SDS011;7939;50.814;6.368;2023-02-12T00:13:20;52.75;;;26.90;;
15677;SDS011;7939;50.814;6.368;2023-02-12T00:15:46;57.25;;;27.13;;
15677;SDS011;7939;50.814;6.368;2023-02-12T00:18:13;64.25;;;29.35;;
15677;SDS011;7939;50.814;6.368;2023-02-12T00:20:40;53.58;;;25.73;;
15677;SDS011;7939;50.814;6.368;2023-02-12T00:23:08;62.80;;;28.95;;
15677;SDS011;7939;50.814;6.368;2023-02-12T00:25:39;56.60;;;28.23;;
15677;SDS011;7939;50.814;6.368;2023-02-12T00:28:06;60.05;;;28.67;;
15677;SDS011;7939;50.814;6.368;2023-02-12T00:30:33;58.80;;;28.60;;
15677;SDS011;7939;50.814;6.368;2023-02-12T00:33:00;55.25;;;26.95;;
15677;SDS011;7939;50.814;6.368;2023-02-12T00:35:26;55.58;;;26.88;;
15677;SDS011;7939;50.814;6.368;2023-02-12T00:37:53;54.60;;;26.65;;
15677;SDS011;7939;50.814;6.368;2023-02-12T00:40:21;55.33;;;26.23;;
15677;SDS011;7939;50.814;6.368;2023-02-12T00:42:48;57.17;;;26.75;;
15677;SDS011;7939;50.814;6.368;2023-02-12T00:45:14;59.75;;;27.42;;
15677;SDS011;7939;50.814;6.368;2023-02-12T00:47:41;54.92;;;28.00;;
15677;SDS011;7939;50.814;6.368;2023-02-12T00:50:08;54.15;;;27.50;;
15677;SDS011;7939;50.814;6.368;2023-02-12T00:52:35;50.95;;;26.20;;
15677;SDS011;7939;50.814;6.368;2023-02-12T00:55:02;56.60;;;30.90;;
15677;SDS011;7939;50.814;6.368;2023-02-12T00:57:30;58.25;;;27.85;;
15677;SDS011;7939;50.814;6.368;2023-02-12T00:59:57;53.08;;;26.17;;
15677;SDS011;7939;50.814;6.368;2023-02-12T01:02:24;56.97;;;27.88;;
15677;SDS011;7939;50.814;6.368;2023-02-12T01:04:51;55.80;;;26.73;;
15677;SDS011;7939;50.814;6.368;2023-02-12T01:07:17;52.90;;;26.63;;
15677;SDS011;7939;50.814;6.368;2023-02-12T01:09:44;55.30;;;24.80;;
15677;SDS011;7939;50.814;6.368;2023-02-12T01:12:11;57.80;;;27.17;;
15677;SDS011;7939;50.814;6.368;2023-02-12T01:14:39;54.92;;;26.90;;
15677;SDS011;7939;50.814;6.368;2023-02-12T01:17:06;55.92;;;26.48;;
15677;SDS011;7939;50.814;6.368;2023-02-12T01:19:33;53.08;;;26.05;;
15677;SDS011;7939;50.814;6.368;2023-02-12T01:21:59;51.97;;;26.65;;
15677;SDS011;7939;50.814;6.368;2023-02-12T01:24:26;53.40;;;26.52;;
15677;SDS011;7939;50.814;6.368;2023-02-12T01:26:53;49.50;;;25.15;;
15677;SDS011;7939;50.814;6.368;2023-02-12T01:29:20;53.40;;;25.85;;
15677;SDS011;7939;50.814;6.368;2023-02-12T01:31:48;53.08;;;25.63;;
15677;SDS011;7939;50.814;6.368;2023-02-12T01:34:15;53.85;;;26.65;;
15677;SDS011;7939;50.814;6.368;2023-02-12T01:36:41;54.60;;;26.15;;
15677;SDS011;7939;50.814;6.368;2023-02-12T01:39:09;52.08;;;25.75;;
15677;SDS011;7939;50.814;6.368;2023-02-12T01:41:39;53.65;;;27.58;;
15677;SDS011;7939;50.814;6.368;2023-02-12T01:44:09;51.30;;;25.92;;
15677;SDS011;7939;50.814;6.368;2023-02-12T01:46:38;51.85;;;25.35;;
15677;SDS011;7939;50.814;6.368;2023-02-12T01:49:07;48.65;;;25.15;;
15677;SDS011;7939;50.814;6.368;2023-02-12T01:51:37;51.70;;;26.00;;
15677;SDS011;7939;50.814;6.368;2023-02-12T01:54:06;51.90;;;25.05;;
15677;SDS011;7939;50.814;6.368;2023-02-12T01:56:35;52.20;;;24.63;;
15677;SDS011;7939;50.814;6.368;2023-02-12T01:59:02;49.60;;;24.40;;
15677;SDS011;7939;50.814;6.368;2023-02-12T02:01:30;53.00;;;26.17;;
15677;SDS011;7939;50.814;6.368;2023-02-12T02:03:59;57.40;;;26.88;;
15677;SDS011;7939;50.814;6.368;2023-02-12T02:06:30;53.75;;;26.65;;
15677;SDS011;7939;50.814;6.368;2023-02-12T02:08:59;49.63;;;23.63;;
15677;SDS011;7939;50.814;6.368;2023-02-12T02:11:27;46.47;;;24.10;;
15677;SDS011;7939;50.814;6.368;2023-02-12T02:14:11;45.65;;;24.10;;
15677;SDS011;7939;50.814;6.368;2023-02-12T02:16:57;50.55;;;24.67;;
15677;SDS011;7939;50.814;6.368;2023-02-12T02:19:35;46.55;;;23.55;;
15677;SDS011;7939;50.814;6.368;2023-02-12T02:22:28;51.17;;;24.92;;
15677;SDS011;7939;50.814;6.368;2023-02-12T02:28:01;51.08;;;25.13;;
15677;SDS011;7939;50.814;6.368;2023-02-12T02:30:40;50.00;;;24.90;;
15677;SDS011;7939;50.814;6.368;2023-02-12T02:33:17;45.45;;;23.30;;
15677;SDS011;7939;50.814;6.368;2023-02-12T02:35:52;45.92;;;25.52;;
15677;SDS011;7939;50.814;6.368;2023-02-12T02:38:27;47.58;;;24.10;;
15677;SDS011;7939;50.814;6.368;2023-02-12T02:41:00;43.00;;;22.35;;
15677;SDS011;7939;50.814;6.368;2023-02-12T02:43:32;43.85;;;22.13;;
15677;SDS011;7939;50.814;6.368;2023-02-12T02:46:04;46.97;;;22.77;;
15677;SDS011;7939;50.814;6.368;2023-02-12T02:48:35;46.47;;;23.60;;
15677;SDS011;7939;50.814;6.368;2023-02-12T02:51:05;44.35;;;23.23;;
15677;SDS011;7939;50.814;6.368;2023-02-12T02:53:36;44.78;;;22.80;;
15677;SDS011;7939;50.814;6.368;2023-02-12T02:56:07;51.42;;;25.65;;
15677;SDS011;7939;50.814;6.368;2023-02-12T02:58:40;42.05;;;21.45;;
15677;SDS011;7939;50.814;6.368;2023-02-12T03:01:11;43.15;;;21.52;;
15677;SDS011;7939;50.814;6.368;2023-02-12T03:03:44;48.25;;;22.85;;
15677;SDS011;7939;50.814;6.368;2023-02-12T03:06:17;47.42;;;22.92;;
15677;SDS011;7939;50.814;6.368;2023-02-12T03:08:48;46.03;;;23.30;;
15677;SDS011;7939;50.814;6.368;2023-02-12T03:11:18;50.95;;;23.10;;
15677;SDS011;7939;50.814;6.368;2023-02-12T03:13:52;43.67;;;21.98;;
15677;SDS011;7939;50.814;6.368;2023-02-12T03:16:24;45.75;;;22.55;;
15677;SDS011;7939;50.814;6.368;2023-02-12T03:18:53;47.65;;;23.90;;
15677;SDS011;7939;50.814;6.368;2023-02-12T03:21:27;51.58;;;24.58;;
15677;SDS011;7939;50.814;6.368;2023-02-12T03:23:59;51.10;;;24.80;;
15677;SDS011;7939;50.814;6.368;2023-02-12T03:26:31;44.85;;;23.95;;
15677;SDS011;7939;50.814;6.368;2023-02-12T03:29:06;46.78;;;23.48;;
15677;SDS011;7939;50.814;6.368;2023-02-12T03:31:35;50.20;;;24.25;;
15677;SDS011;7939;50.814;6.368;2023-02-12T03:34:10;46.10;;;23.90;;
15677;SDS011;7939;50.814;6.368;2023-02-12T03:36:44;45.80;;;23.73;;
15677;SDS011;7939;50.814;6.368;2023-02-12T03:39:15;44.70;;;22.95;;
15677;SDS011;7939;50.814;6.368;2023-02-12T03:41:52;43.15;;;22.33;;
15677;SDS011;7939;50.814;6.368;2023-02-12T03:44:28;43.50;;;22.80;;
15677;SDS011;7939;50.814;6.368;2023-02-12T03:47:10;45.75;;;23.40;;
15677;SDS011;7939;50.814;6.368;2023-02-12T03:49:46;51.88;;;23.85;;
15677;SDS011;7939;50.814;6.368;2023-02-12T03:52:18;42.45;;;21.45;;
15677;SDS011;7939;50.814;6.368;2023-02-12T03:54:45;44.92;;;22.88;;
15677;SDS011;7939;50.814;6.368;2023-02-12T03:57:13;46.05;;;22.08;;
15677;SDS011;7939;50.814;6.368;2023-02-12T03:59:43;50.40;;;23.85;;
15677;SDS011;7939;50.814;6.368;2023-02-12T04:02:12;41.88;;;22.95;;
15677;SDS011;7939;50.814;6.368;2023-02-12T04:04:40;45.38;;;24.48;;
15677;SDS011;7939;50.814;6.368;2023-02-12T04:07:07;46.20;;;23.13;;
15677;SDS011;7939;50.814;6.368;2023-02-12T04:09:34;42.60;;;21.10;;
15677;SDS011;7939;50.814;6.368;2023-02-12T04:12:08;45.88;;;23.35;;
15677;SDS011;7939;50.814;6.368;2023-02-12T04:14:46;46.67;;;23.00;;
15677;SDS011;7939;50.814;6.368;2023-02-12T04:17:21;48.92;;;23.15;;
15677;SDS011;7939;50.814;6.368;2023-02-12T04:19:59;45.65;;;22.20;;
15677;SDS011;7939;50.814;6.368;2023-02-12T04:22:35;41.78;;;21.77;;
15677;SDS011;7939;50.814;6.368;2023-02-12T04:25:15;47.10;;;23.42;;
15677;SDS011;7939;50.814;6.368;2023-02-12T04:27:54;42.42;;;22.33;;
15677;SDS011;7939;50.814;6.368;2023-02-12T04:30:26;40.45;;;21.50;;
15677;SDS011;7939;50.814;6.368;2023-02-12T04:32:59;40.55;;;22.00;;
15677;SDS011;7939;50.814;6.368;2023-02-12T04:35:29;41.80;;;21.35;;
15677;SDS011;7939;50.814;6.368;2023-02-12T04:37:58;41.42;;;21.65;;
15677;SDS011;7939;50.814;6.368;2023-02-12T04:40:33;43.45;;;21.27;;
15677;SDS011;7939;50.814;6.368;2023-02-12T04:43:00;46.28;;;22.50;;
15677;SDS011;7939;50.814;6.368;2023-02-12T04:45:27;44.20;;;23.42;;
15677;SDS011;7939;50.814;6.368;2023-02-12T04:47:57;45.25;;;21.95;;
15677;SDS011;7939;50.814;6.368;2023-02-12T04:50:25;45.50;;;23.67;;
15677;SDS011;7939;50.814;6.368;2023-02-12T04:52:52;45.53;;;22.30;;
15677;SDS011;7939;50.814;6.368;2023-02-12T04:55:18;42.40;;;22.95;;
15677;SDS011;7939;50.814;6.368;2023-02-12T04:57:45;40.47;;;21.98;;
15677;SDS011;7939;50.814;6.368;2023-02-12T05:00:12;46.63;;;24.20;;
15677;SDS011;7939;50.814;6.368;2023-02-12T05:02:39;42.50;;;22.23;;
15677;SDS011;7939;50.814;6.368;2023-02-12T05:05:06;41.80;;;20.58;;
15677;SDS011;7939;50.814;6.368;2023-02-12T05:07:34;45.33;;;22.10;;
15677;SDS011;7939;50.814;6.368;2023-02-12T05:10:01;44.80;;;21.63;;
15677;SDS011;7939;50.814;6.368;2023-02-12T05:12:27;39.80;;;21.10;;
15677;SDS011;7939;50.814;6.368;2023-02-12T05:14:54;37.63;;;19.63;;
15677;SDS011;7939;50.814;6.368;2023-02-12T05:17:21;43.15;;;21.35;;
15677;SDS011;7939;50.814;6.368;2023-02-12T05:19:48;41.05;;;21.23;;
15677;SDS011;7939;50.814;6.368;2023-02-12T05:22:14;41.15;;;20.25;;
15677;SDS011;7939;50.814;6.368;2023-02-12T05:24:42;37.28;;;18.73;;
15677;SDS011;7939;50.814;6.368;2023-02-12T05:27:09;42.90;;;20.20;;
15677;SDS011;7939;50.814;6.368;2023-02-12T05:29:36;40.03;;;21.17;;
15677;SDS011;7939;50.814;6.368;2023-02-12T05:32:03;41.83;;;21.95;;
15677;SDS011;7939;50.814;6.368;2023-02-12T05:34:30;41.95;;;21.85;;
15677;SDS011;7939;50.814;6.368;2023-02-12T05:36:57;39.67;;;20.20;;
15677;SDS011;7939;50.814;6.368;2023-02-12T05:39:24;41.55;;;20.48;;
15677;SDS011;7939;50.814;6.368;2023-02-12T05:41:52;38.33;;;19.90;;
15677;SDS011;7939;50.814;6.368;2023-02-12T05:44:19;39.85;;;19.42;;
15677;SDS011;7939;50.814;6.368;2023-02-12T05:46:45;36.47;;;18.45;;
15677;SDS011;7939;50.814;6.368;2023-02-12T05:49:12;40.55;;;20.50;;
15677;SDS011;7939;50.814;6.368;2023-02-12T05:51:38;39.22;;;21.33;;
15677;SDS011;7939;50.814;6.368;2023-02-12T05:54:05;42.78;;;20.92;;
15677;SDS011;7939;50.814;6.368;2023-02-12T05:56:33;40.45;;;20.75;;
15677;SDS011;7939;50.814;6.368;2023-02-12T05:59:03;41.90;;;20.00;;
15677;SDS011;7939;50.814;6.368;2023-02-12T06:01:31;39.17;;;19.75;;
15677;SDS011;7939;50.814;6.368;2023-02-12T06:04:00;39.97;;;19.80;;
15677;SDS011;7939;50.814;6.368;2023-02-12T06:06:29;35.17;;;18.27;;
15677;SDS011;7939;50.814;6.368;2023-02-12T06:08:56;36.60;;;20.42;;
15677;SDS011;7939;50.814;6.368;2023-02-12T06:11:23;36.65;;;19.63;;
15677;SDS011;7939;50.814;6.368;2023-02-12T06:13:50;42.65;;;20.70;;
15677;SDS011;7939;50.814;6.368;2023-02-12T06:16:19;40.13;;;19.45;;
15677;SDS011;7939;50.814;6.368;2023-02-12T06:18:47;41.17;;;19.92;;
15677;SDS011;7939;50.814;6.368;2023-02-12T06:21:15;40.50;;;20.73;;
15677;SDS011;7939;50.814;6.368;2023-02-12T06:23:42;40.92;;;21.85;;
15677;SDS011;7939;50.814;6.368;2023-02-12T06:26:09;34.45;;;18.25;;
15677;SDS011;7939;50.814;6.368;2023-02-12T06:28:35;35.95;;;18.25;;
15677;SDS011;7939;50.814;6.368;2023-02-12T06:31:02;35.85;;;19.00;;
15677;SDS011;7939;50.814;6.368;2023-02-12T06:33:30;39.78;;;20.05;;
15677;SDS011;7939;50.814;6.368;2023-02-12T06:36:01;35.80;;;18.15;;
15677;SDS011;7939;50.814;6.368;2023-02-12T06:38:29;36.53;;;18.52;;
15677;SDS011;7939;50.814;6.368;2023-02-12T06:40:55;37.97;;;19.42;;
15677;SDS011;7939;50.814;6.368;2023-02-12T06:43:22;38.47;;;19.73;;
15677;SDS011;7939;50.814;6.368;2023-02-12T06:45:49;36.15;;;18.30;;
15677;SDS011;7939;50.814;6.368;2023-02-12T06:48:16;35.85;;;19.88;;
15677;SDS011;7939;50.814;6.368;2023-02-12T06:50:44;37.38;;;18.67;;
15677;SDS011;7939;50.814;6.368;2023-02-12T06:53:10;39.65;;;19.50;;
15677;SDS011;7939;50.814;6.368;2023-02-12T06:55:37;36.80;;;19.33;;
15677;SDS011;7939;50.814;6.368;2023-02-12T06:58:04;38.55;;;19.20;;
15677;SDS011;7939;50.814;6.368;2023-02-12T07:00:30;32.58;;;17.60;;
15677;SDS011;7939;50.814;6.368;2023-02-12T07:02:57;34.15;;;19.27;;
15677;SDS011;7939;50.814;6.368;2023-02-12T07:05:24;35.63;;;18.92;;
15677;SDS011;7939;50.814;6.368;2023-02-12T07:07:52;38.20;;;20.13;;
15677;SDS011;7939;50.814;6.368;2023-02-12T07:10:24;35.95;;;18.73;;
15677;SDS011;7939;50.814;6.368;2023-02-12T07:12:51;32.13;;;18.60;;
15677;SDS011;7939;50.814;6.368;2023-02-12T07:15:18;35.65;;;19.77;;
15677;SDS011;7939;50.814;6.368;2023-02-12T07:17:45;31.92;;;17.17;;
15677;SDS011;7939;50.814;6.368;2023-02-12T07:20:12;37.42;;;19.40;;
15677;SDS011;7939;50.814;6.368;2023-02-12T07:22:39;37.33;;;18.80;;
15677;SDS011;7939;50.814;6.368;2023-02-12T07:25:08;35.47;;;18.38;;
15677;SDS011;7939;50.814;6.368;2023-02-12T07:27:35;37.78;;;18.80;;
15677;SDS011;7939;50.814;6.368;2023-02-12T07:30:02;34.10;;;17.63;;
15677;SDS011;7939;50.814;6.368;2023-02-12T07:32:30;32.30;;;18.10;;
15677;SDS011;7939;50.814;6.368;2023-02-12T07:34:57;36.35;;;18.02;;
15677;SDS011;7939;50.814;6.368;2023-02-12T07:37:23;32.67;;;17.90;;
15677;SDS011;7939;50.814;6.368;2023-02-12T07:39:50;30.98;;;15.90;;
15677;SDS011;7939;50.814;6.368;2023-02-12T07:42:19;30.40;;;16.23;;
15677;SDS011;7939;50.814;6.368;2023-02-12T07:44:45;36.50;;;18.63;;
15677;SDS011;7939;50.814;6.368;2023-02-12T07:47:14;37.47;;;18.90;;
15677;SDS011;7939;50.814;6.368;2023-02-12T07:49:40;34.38;;;20.02;;
15677;SDS011;7939;50.814;6.368;2023-02-12T07:52:07;35.33;;;19.95;;
15677;SDS011;7939;50.814;6.368;2023-02-12T07:54:34;33.58;;;17.60;;
15677;SDS011;7939;50.814;6.368;2023-02-12T07:57:00;32.25;;;19.00;;
15677;SDS011;7939;50.814;6.368;2023-02-12T07:59:29;34.72;;;18.67;;
15677;SDS011;7939;50.814;6.368;2023-02-12T08:01:55;35.00;;;19.27;;
15677;SDS011;7939;50.814;6.368;2023-02-12T08:04:23;33.13;;;18.08;;
15677;SDS011;7939;50.814;6.368;2023-02-12T08:06:51;35.28;;;17.90;;
15677;SDS011;7939;50.814;6.368;2023-02-12T08:09:19;32.40;;;18.63;;
15677;SDS011;7939;50.814;6.368;2023-02-12T08:11:48;37.15;;;19.63;;
15677;SDS011;7939;50.814;6.368;2023-02-12T08:14:15;33.95;;;17.85;;
15677;SDS011;7939;50.814;6.368;2023-02-12T08:16:45;34.90;;;18.65;;
15677;SDS011;7939;50.814;6.368;2023-02-12T08:19:13;36.42;;;18.17;;
15677;SDS011;7939;50.814;6.368;2023-02-12T08:21:40;34.83;;;18.42;;
15677;SDS011;7939;50.814;6.368;2023-02-12T08:24:08;32.35;;;17.63;;
15677;SDS011;7939;50.814;6.368;2023-02-12T08:26:36;35.70;;;18.10;;
15677;SDS011;7939;50.814;6.368;2023-02-12T08:29:05;36.40;;;18.70;;
15677;SDS011;7939;50.814;6.368;2023-02-12T08:31:34;36.22;;;17.58;;
15677;SDS011;7939;50.814;6.368;2023-02-12T08:34:03;36.50;;;18.02;;
15677;SDS011;7939;50.814;6.368;2023-02-12T08:36:34;32.75;;;18.25;;
15677;SDS011;7939;50.814;6.368;2023-02-12T08:39:02;37.03;;;19.58;;
15677;SDS011;7939;50.814;6.368;2023-02-12T08:41:29;35.63;;;19.77;;
15677;SDS011;7939;50.814;6.368;2023-02-12T08:43:56;35.35;;;18.67;;
15677;SDS011;7939;50.814;6.368;2023-02-12T08:46:24;38.10;;;19.80;;
15677;SDS011;7939;50.814;6.368;2023-02-12T08:48:52;42.13;;;21.92;;
15677;SDS011;7939;50.814;6.368;2023-02-12T08:51:23;42.95;;;23.25;;
15677;SDS011;7939;50.814;6.368;2023-02-12T08:53:53;42.38;;;22.65;;
15677;SDS011;7939;50.814;6.368;2023-02-12T08:56:22;42.55;;;22.58;;
15677;SDS011;7939;50.814;6.368;2023-02-12T08:58:50;40.45;;;21.92;;
15677;SDS011;7939;50.814;6.368;2023-02-12T09:01:17;38.30;;;21.13;;
15677;SDS011;7939;50.814;6.368;2023-02-12T09:03:46;47.67;;;24.55;;
15677;SDS011;7939;50.814;6.368;2023-02-12T09:06:14;42.28;;;22.00;;
15677;SDS011;7939;50.814;6.368;2023-02-12T09:08:42;42.15;;;22.55;;
15677;SDS011;7939;50.814;6.368;2023-02-12T09:11:10;48.97;;;24.27;;
15677;SDS011;7939;50.814;6.368;2023-02-12T09:13:40;47.65;;;24.27;;
15677;SDS011;7939;50.814;6.368;2023-02-12T09:16:08;45.80;;;24.15;;
15677;SDS011;7939;50.814;6.368;2023-02-12T09:18:35;52.22;;;24.35;;
15677;SDS011;7939;50.814;6.368;2023-02-12T09:21:03;47.05;;;24.13;;
15677;SDS011;7939;50.814;6.368;2023-02-12T09:23:31;43.67;;;23.45;;
15677;SDS011;7939;50.814;6.368;2023-02-12T09:26:02;47.40;;;24.15;;
15677;SDS011;7939;50.814;6.368;2023-02-12T09:28:29;43.13;;;23.33;;
15677;SDS011;7939;50.814;6.368;2023-02-12T09:30:56;48.08;;;25.50;;
15677;SDS011;7939;50.814;6.368;2023-02-12T09:33:22;49.05;;;24.98;;
15677;SDS011;7939;50.814;6.368;2023-02-12T09:35:49;47.55;;;24.17;;
15677;SDS011;7939;50.814;6.368;2023-02-12T09:38:15;45.58;;;23.33;;
15677;SDS011;7939;50.814;6.368;2023-02-12T09:40:43;47.92;;;25.08;;
15677;SDS011;7939;50.814;6.368;2023-02-12T09:43:24;53.05;;;25.60;;
15677;SDS011;7939;50.814;6.368;2023-02-12T09:45:57;47.35;;;26.02;;
15677;SDS011;7939;50.814;6.368;2023-02-12T09:48:42;47.47;;;23.70;;
15677;SDS011;7939;50.814;6.368;2023-02-12T09:51:19;47.95;;;24.42;;
15677;SDS011;7939;50.814;6.368;2023-02-12T09:53:48;46.78;;;23.30;;
15677;SDS011;7939;50.814;6.368;2023-02-12T09:56:27;51.60;;;26.73;;
15677;SDS011;7939;50.814;6.368;2023-02-12T09:58:57;48.28;;;26.27;;
15677;SDS011;7939;50.814;6.368;2023-02-12T10:01:25;54.10;;;26.52;;
15677;SDS011;7939;50.814;6.368;2023-02-12T10:03:53;44.92;;;24.48;;
15677;SDS011;7939;50.814;6.368;2023-02-12T10:06:21;50.55;;;26.20;;
15677;SDS011;7939;50.814;6.368;2023-02-12T10:11:52;46.40;;;24.27;;
15677;SDS011;7939;50.814;6.368;2023-02-12T10:14:31;53.58;;;25.77;;
15677;SDS011;7939;50.814;6.368;2023-02-12T10:17:11;51.10;;;24.25;;
15677;SDS011;7939;50.814;6.368;2023-02-12T10:19:49;50.85;;;24.13;;
15677;SDS011;7939;50.814;6.368;2023-02-12T10:22:28;51.30;;;26.67;;
15677;SDS011;7939;50.814;6.368;2023-02-12T10:25:07;48.80;;;24.80;;
15677;SDS011;7939;50.814;6.368;2023-02-12T10:27:42;53.25;;;26.15;;
15677;SDS011;7939;50.814;6.368;2023-02-12T10:30:17;50.42;;;23.83;;
15677;SDS011;7939;50.814;6.368;2023-02-12T10:32:48;44.50;;;23.05;;
15677;SDS011;7939;50.814;6.368;2023-02-12T10:35:18;50.92;;;26.55;;
15677;SDS011;7939;50.814;6.368;2023-02-12T10:37:48;56.17;;;26.15;;
15677;SDS011;7939;50.814;6.368;2023-02-12T10:40:21;50.33;;;25.00;;
15677;SDS011;7939;50.814;6.368;2023-02-12T10:42:52;52.47;;;25.20;;
15677;SDS011;7939;50.814;6.368;2023-02-12T10:45:21;49.22;;;25.85;;
15677;SDS011;7939;50.814;6.368;2023-02-12T10:47:52;56.13;;;25.88;;
15677;SDS011;7939;50.814;6.368;2023-02-12T10:50:32;62.42;;;28.40;;
15677;SDS011;7939;50.814;6.368;2023-02-12T10:53:11;53.03;;;25.70;;
15677;SDS011;7939;50.814;6.368;2023-02-12T10:55:40;53.03;;;26.00;;
15677;SDS011;7939;50.814;6.368;2023-02-12T10:58:15;53.67;;;28.00;;
15677;SDS011;7939;50.814;6.368;2023-02-12T11:00:46;57.83;;;28.95;;
15677;SDS011;7939;50.814;6.368;2023-02-12T11:03:22;57.05;;;27.00;;
15677;SDS011;7939;50.814;6.368;2023-02-12T11:05:54;56.28;;;28.35;;
15677;SDS011;7939;50.814;6.368;2023-02-12T11:08:31;55.40;;;25.98;;
15677;SDS011;7939;50.814;6.368;2023-02-12T11:11:03;55.38;;;26.50;;
15677;SDS011;7939;50.814;6.368;2023-02-12T11:13:32;54.33;;;30.30;;
15677;SDS011;7939;50.814;6.368;2023-02-12T11:16:02;57.00;;;29.50;;
15677;SDS011;7939;50.814;6.368;2023-02-12T11:18:29;61.80;;;29.55;;
15677;SDS011;7939;50.814;6.368;2023-02-12T11:20:59;60.28;;;26.88;;
15677;SDS011;7939;50.814;6.368;2023-02-12T11:23:29;59.75;;;29.63;;
15677;SDS011;7939;50.814;6.368;2023-02-12T11:25:58;59.40;;;28.38;;
15677;SDS011;7939;50.814;6.368;2023-02-12T11:28:26;59.22;;;28.35;;
15677;SDS011;7939;50.814;6.368;2023-02-12T11:30:55;65.05;;;31.08;;
15677;SDS011;7939;50.814;6.368;2023-02-12T11:33:26;61.75;;;29.70;;
15677;SDS011;7939;50.814;6.368;2023-02-12T11:35:57;61.78;;;29.00;;
15677;SDS011;7939;50.814;6.368;2023-02-12T11:38:28;60.90;;;30.42;;
15677;SDS011;7939;50.814;6.368;2023-02-12T11:41:05;64.63;;;29.17;;
15677;SDS011;7939;50.814;6.368;2023-02-12T11:43:42;62.38;;;29.33;;
15677;SDS011;7939;50.814;6.368;2023-02-12T11:46:10;61.30;;;30.63;;
15677;SDS011;7939;50.814;6.368;2023-02-12T11:48:46;54.10;;;26.40;;
15677;SDS011;7939;50.814;6.368;2023-02-12T11:51:17;49.80;;;25.77;;
15677;SDS011;7939;50.814;6.368;2023-02-12T11:53:47;53.25;;;28.02;;
15677;SDS011;7939;50.814;6.368;2023-02-12T11:56:15;51.25;;;26.95;;
15677;SDS011;7939;50.814;6.368;2023-02-12T11:58:42;51.65;;;28.08;;
15677;SDS011;7939;50.814;6.368;2023-02-12T12:01:13;56.28;;;29.05;;
15677;SDS011;7939;50.814;6.368;2023-02-12T12:03:50;57.38;;;30.45;;
15677;SDS011;7939;50.814;6.368;2023-02-12T12:06:25;64.63;;;29.92;;
15677;SDS011;7939;50.814;6.368;2023-02-12T12:08:59;52.03;;;26.63;;
15677;SDS011;7939;50.814;6.368;2023-02-12T12:11:31;59.38;;;30.95;;
15677;SDS011;7939;50.814;6.368;2023-02-12T12:14:08;57.85;;;29.58;;
15677;SDS011;7939;50.814;6.368;2023-02-12T12:16:43;55.03;;;28.45;;
15677;SDS011;7939;50.814;6.368;2023-02-12T12:19:37;52.85;;;28.33;;
15677;SDS011;7939;50.814;6.368;2023-02-12T12:25:18;65.93;;;31.33;;
15677;SDS011;7939;50.814;6.368;2023-02-12T12:27:53;69.28;;;31.95;;
15677;SDS011;7939;50.814;6.368;2023-02-12T12:30:40;61.03;;;30.42;;
15677;SDS011;7939;50.814;6.368;2023-02-12T12:33:18;69.78;;;31.85;;
15677;SDS011;7939;50.814;6.368;2023-02-12T12:35:57;50.88;;;25.77;;
15677;SDS011;7939;50.814;6.368;2023-02-12T12:38:35;51.95;;;26.92;;
15677;SDS011;7939;50.814;6.368;2023-02-12T12:41:10;60.13;;;29.10;;
15677;SDS011;7939;50.814;6.368;2023-02-12T12:43:49;54.85;;;27.52;;
15677;SDS011;7939;50.814;6.368;2023-02-12T12:46:31;52.70;;;25.17;;
15677;SDS011;7939;50.814;6.368;2023-02-12T12:52:05;53.35;;;25.05;;
15677;SDS011;7939;50.814;6.368;2023-02-12T12:55:02;49.33;;;24.98;;
15677;SDS011;7939;50.814;6.368;2023-02-12T12:57:42;47.38;;;23.90;;
15677;SDS011;7939;50.814;6.368;2023-02-12T13:06:23;48.20;;;25.17;;
15677;SDS011;7939;50.814;6.368;2023-02-12T13:09:05;48.70;;;25.52;;
15677;SDS011;7939;50.814;6.368;2023-02-12T13:11:43;47.75;;;25.00;;
15677;SDS011;7939;50.814;6.368;2023-02-12T13:14:28;44.15;;;23.92;;
15677;SDS011;7939;50.814;6.368;2023-02-12T13:17:08;39.70;;;20.42;;
15677;SDS011;7939;50.814;6.368;2023-02-12T13:19:45;41.40;;;21.80;;
15677;SDS011;7939;50.814;6.368;2023-02-12T13:22:26;42.78;;;22.42;;
15677;SDS011;7939;50.814;6.368;2023-02-12T13:25:03;43.33;;;24.33;;
15677;SDS011;7939;50.814;6.368;2023-02-12T13:27:43;51.30;;;25.55;;
15677;SDS011;7939;50.814;6.368;2023-02-12T13:30:17;49.25;;;23.95;;
15677;SDS011;7939;50.814;6.368;2023-02-12T13:32:48;51.92;;;25.27;;
15677;SDS011;7939;50.814;6.368;2023-02-12T13:35:21;60.78;;;28.13;;
15677;SDS011;7939;50.814;6.368;2023-02-12T13:37:50;49.90;;;25.02;;
15677;SDS011;7939;50.814;6.368;2023-02-12T13:40:21;51.17;;;24.90;;
15677;SDS011;7939;50.814;6.368;2023-02-12T13:42:50;57.58;;;27.85;;
15677;SDS011;7939;50.814;6.368;2023-02-12T13:45:26;57.55;;;26.85;;
15677;SDS011;7939;50.814;6.368;2023-02-12T13:48:14;53.35;;;25.52;;
15677;SDS011;7939;50.814;6.368;2023-02-12T13:50:49;52.75;;;26.38;;
15677;SDS011;7939;50.814;6.368;2023-02-12T13:53:24;64.07;;;29.80;;
15677;SDS011;7939;50.814;6.368;2023-02-12T13:56:05;61.40;;;29.08;;
15677;SDS011;7939;50.814;6.368;2023-02-12T14:04:26;59.28;;;30.42;;
15677;SDS011;7939;50.814;6.368;2023-02-12T14:06:59;65.18;;;30.60;;
15677;SDS011;7939;50.814;6.368;2023-02-12T14:09:34;54.58;;;26.38;;
15677;SDS011;7939;50.814;6.368;2023-02-12T14:12:06;64.45;;;30.75;;
15677;SDS011;7939;50.814;6.368;2023-02-12T14:14:36;62.03;;;28.73;;
15677;SDS011;7939;50.814;6.368;2023-02-12T14:20:07;65.10;;;30.30;;
15677;SDS011;7939;50.814;6.368;2023-02-12T14:25:56;60.00;;;29.20;;
15677;SDS011;7939;50.814;6.368;2023-02-12T14:28:32;60.78;;;29.02;;
15677;SDS011;7939;50.814;6.368;2023-02-12T14:31:31;60.85;;;29.30;;
15677;SDS011;7939;50.814;6.368;2023-02-12T14:37:32;54.95;;;30.00;;
15677;SDS011;7939;50.814;6.368;2023-02-12T14:43:02;64.43;;;30.80;;
15677;SDS011;7939;50.814;6.368;2023-02-12T14:45:32;61.03;;;30.95;;
15677;SDS011;7939;50.814;6.368;2023-02-12T14:48:01;54.97;;;26.63;;
15677;SDS011;7939;50.814;6.368;2023-02-12T14:50:30;60.28;;;28.02;;
15677;SDS011;7939;50.814;6.368;2023-02-12T14:53:05;62.38;;;29.67;;
15677;SDS011;7939;50.814;6.368;2023-02-12T14:55:42;60.00;;;28.38;;
15677;SDS011;7939;50.814;6.368;2023-02-12T14:58:15;54.08;;;28.58;;
15677;SDS011;7939;50.814;6.368;2023-02-12T15:00:45;56.63;;;29.58;;
15677;SDS011;7939;50.814;6.368;2023-02-12T15:03:18;51.65;;;27.42;;
15677;SDS011;7939;50.814;6.368;2023-02-12T15:05:52;47.92;;;25.73;;
15677;SDS011;7939;50.814;6.368;2023-02-12T15:08:25;47.53;;;26.05;;
15677;SDS011;7939;50.814;6.368;2023-02-12T15:10:58;59.00;;;27.75;;
15677;SDS011;7939;50.814;6.368;2023-02-12T15:13:40;63.25;;;29.77;;
15677;SDS011;7939;50.814;6.368;2023-02-12T15:16:15;51.55;;;26.65;;
15677;SDS011;7939;50.814;6.368;2023-02-12T15:18:50;50.22;;;27.10;;
15677;SDS011;7939;50.814;6.368;2023-02-12T15:21:23;55.53;;;28.05;;
15677;SDS011;7939;50.814;6.368;2023-02-12T15:24:04;51.03;;;27.55;;
15677;SDS011;7939;50.814;6.368;2023-02-12T15:26:33;51.03;;;26.02;;
15677;SDS011;7939;50.814;6.368;2023-02-12T15:29:02;50.90;;;26.20;;
15677;SDS011;7939;50.814;6.368;2023-02-12T15:31:31;52.35;;;25.55;;